Time;durP1;ratioP1;P1;durP2;ratioP2;P2;SDS_P1;SDS_P2;PMS_P1;PMS_P2;Temp;Humidity;BMP_temperature;BMP_pressure;BME280_temperature;BME280_humidity;BME280_pressure;Samples;Min_cycle;Max_cycle;Signal;HPM_P1;HPM_P2
2022/10/05 00:01:16;;;;;;;29.45;17.30;;;15.20;99.90;;;;;;5103992;28;20424;-69
2022/10/05 00:03:41;;;;;;;29.70;16.95;;;15.20;99.90;;;;;;5109641;28;20163;-70
2022/10/05 00:06:09;;;;;;;27.48;16.42;;;15.20;99.90;;;;;;5105691;28;20126;-69
2022/10/05 00:08:35;;;;;;;;;;;15.20;99.90;;;;;;5114325;27;20495;-69
2022/10/05 00:11:01;;;;;;;29.17;17.30;;;15.20;99.90;;;;;;5105456;27;20018;-70
2022/10/05 00:13:29;;;;;;;32.13;16.80;;;15.20;99.90;;;;;;5113639;27;20035;-69
2022/10/05 00:16:21;;;;;;;29.27;17.05;;;15.20;99.90;;;;;;5113560;27;20035;-69
2022/10/05 00:18:52;;;;;;;24.65;15.05;;;15.20;99.90;;;;;;5109612;27;20134;-70
2022/10/05 00:21:22;;;;;;;25.27;15.40;;;15.20;99.90;;;;;;5113314;28;20463;-69
2022/10/05 00:23:49;;;;;;;23.92;15.50;;;15.20;99.90;;;;;;5093115;28;20044;-69
2022/10/05 00:26:31;;;;;;;28.95;15.32;;;15.20;99.90;;;;;;5105131;28;20096;-69
2022/10/05 00:28:57;;;;;;;22.80;15.18;;;15.20;99.90;;;;;;5111386;28;20051;-69
2022/10/05 00:31:26;;;;;;;22.48;14.75;;;15.10;99.90;;;;;;5113894;27;20043;-69
2022/10/05 00:33:54;;;;;;;20.80;14.93;;;15.20;99.90;;;;;;5095898;28;20511;-69
2022/10/05 00:36:19;;;;;;;19.90;15.38;;;15.10;99.90;;;;;;5112864;28;20047;-69
2022/10/05 00:38:45;;;;;;;26.10;13.57;;;15.20;99.90;;;;;;5114101;27;20051;-69
2022/10/05 00:41:27;;;;;;;22.17;14.40;;;15.20;99.90;;;;;;5107489;28;20555;-69
2022/10/05 00:44:21;;;;;;;25.90;15.10;;;15.20;99.90;;;;;;5108662;27;20630;-69
2022/10/05 00:47:41;;;;;;;26.20;13.25;;;15.20;99.90;;;;;;5100867;28;20416;-69
2022/10/05 00:50:21;;;;;;;22.48;14.20;;;15.20;99.90;;;;;;5070693;28;20058;-70
2022/10/05 00:53:10;;;;;;;23.40;13.65;;;15.10;99.90;;;;;;5107954;28;20051;-69
2022/10/05 00:56:04;;;;;;;20.45;14.77;;;15.20;99.90;;;;;;5104254;28;20081;-69
2022/10/05 00:58:51;;;;;;;21.58;13.05;;;15.20;99.90;;;;;;5104310;28;20043;-69
2022/10/05 01:01:22;;;;;;;20.52;13.77;;;15.10;99.90;;;;;;5109606;28;20052;-69
2022/10/05 01:04:07;;;;;;;21.38;13.57;;;15.20;99.90;;;;;;5110706;27;20086;-69
2022/10/05 01:06:48;;;;;;;26.98;15.13;;;15.20;99.90;;;;;;5104609;28;20054;-69
2022/10/05 01:09:21;;;;;;;24.02;14.70;;;15.20;99.90;;;;;;5097249;28;20455;-69
2022/10/05 01:11:59;;;;;;;26.02;14.65;;;15.10;99.90;;;;;;5108835;28;20821;-69
2022/10/05 01:14:42;;;;;;;28.45;14.40;;;15.10;99.90;;;;;;5105409;28;20056;-69
2022/10/05 01:17:19;;;;;;;26.00;15.95;;;15.10;99.90;;;;;;5104999;28;20976;-69
2022/10/05 01:19:54;;;;;;;27.10;13.98;;;15.10;99.90;;;;;;5095530;28;20043;-69
2022/10/05 01:22:39;;;;;;;21.15;14.50;;;15.10;99.90;;;;;;5095086;28;20056;-69
2022/10/05 01:25:39;;;;;;;28.13;14.93;;;15.10;99.90;;;;;;5096092;28;20054;-69
2022/10/05 01:28:29;;;;;;;20.02;15.20;;;15.10;99.90;;;;;;5096021;28;21387;-69
2022/10/05 01:31:29;;;;;;;25.35;15.40;;;15.10;99.90;;;;;;5109621;28;20122;-69
2022/10/05 01:34:14;;;;;;;26.10;15.10;;;15.10;99.90;;;;;;5089106;28;20056;-69
2022/10/05 01:37:05;;;;;;;24.65;15.32;;;15.10;99.90;;;;;;5096392;28;20541;-69
2022/10/05 01:39:51;;;;;;;26.13;16.70;;;15.10;99.90;;;;;;5106890;28;20440;-69
2022/10/05 01:42:17;;;;;;;23.92;15.25;;;15.10;99.90;;;;;;5096583;28;20060;-69
2022/10/05 01:44:42;;;;;;;23.15;17.52;;;15.10;99.90;;;;;;5106439;28;20043;-69
2022/10/05 01:47:48;;;;;;;22.33;14.73;;;15.10;99.90;;;;;;5101741;28;20059;-70
2022/10/05 01:50:48;;;;;;;30.60;16.08;;;15.00;99.90;;;;;;5096338;28;20726;-69
2022/10/05 01:53:52;;;;;;;25.33;16.77;;;15.10;99.90;;;;;;5097352;28;20092;-69
2022/10/05 01:56:37;;;;;;;25.92;16.77;;;15.00;99.90;;;;;;5104987;28;20052;-69
2022/10/05 01:59:28;;;;;;;24.73;16.80;;;15.00;99.90;;;;;;5100208;28;20519;-69
2022/10/05 02:02:02;;;;;;;26.63;16.83;;;15.00;99.90;;;;;;5097063;28;20047;-69
2022/10/05 02:04:36;;;;;;;26.38;17.58;;;15.00;99.90;;;;;;5102940;28;20054;-69
2022/10/05 02:07:08;;;;;;;28.77;16.45;;;15.00;99.90;;;;;;5099816;28;20555;-70
2022/10/05 02:09:44;;;;;;;29.63;17.92;;;14.90;99.90;;;;;;5106452;28;20065;-70
2022/10/05 02:12:15;;;;;;;31.10;18.63;;;14.90;99.90;;;;;;5107727;28;20043;-69
2022/10/05 02:14:48;;;;;;;31.17;19.15;;;15.00;99.90;;;;;;5105717;28;20047;-69
2022/10/05 02:17:20;;;;;;;39.33;20.70;;;14.90;99.90;;;;;;5101082;28;20039;-69
2022/10/05 02:19:51;;;;;;;29.88;19.42;;;15.00;99.90;;;;;;5106190;28;20066;-69
2022/10/05 02:22:39;;;;;;;29.60;18.45;;;14.90;99.90;;;;;;5099596;28;20080;-69
2022/10/05 02:25:13;;;;;;;30.85;17.83;;;14.90;99.90;;;;;;5099626;28;20409;-69
2022/10/05 02:27:47;;;;;;;30.10;19.70;;;14.90;99.90;;;;;;5091226;28;20054;-69
2022/10/05 02:30:16;;;;;;;32.38;19.65;;;14.90;99.90;;;;;;5103807;28;20042;-69
2022/10/05 02:32:50;;;;;;;31.75;18.77;;;14.90;99.90;;;;;;5097656;28;20500;-69
2022/10/05 02:35:17;;;;;;;25.30;17.25;;;14.90;99.90;;;;;;5107405;28;20085;-69
2022/10/05 02:38:06;;;;;;;30.45;17.40;;;14.90;99.90;;;;;;5109135;28;20055;-69
2022/10/05 02:41:20;;;;;;;26.55;16.48;;;14.80;99.90;;;;;;5102318;28;20473;-69
2022/10/05 02:44:18;;;;;;;29.63;18.10;;;14.80;99.90;;;;;;5062947;28;20040;-69
2022/10/05 02:47:07;;;;;;;30.98;17.40;;;14.80;99.90;;;;;;5103045;28;20058;-69
2022/10/05 02:49:50;;;;;;;25.65;15.63;;;14.80;99.90;;;;;;5108514;28;20052;-69
2022/10/05 02:52:36;;;;;;;29.00;17.92;;;14.80;99.90;;;;;;5104540;28;20051;-69
2022/10/05 02:55:28;;;;;;;31.02;17.65;;;14.80;99.90;;;;;;5100447;28;20039;-69
2022/10/05 02:57:53;;;;;;;31.00;16.23;;;14.80;99.90;;;;;;5085072;27;20109;-69
2022/10/05 03:00:22;;;;;;;28.63;17.27;;;14.70;99.90;;;;;;5096741;28;20075;-69
2022/10/05 03:03:07;;;;;;;27.40;16.23;;;14.70;99.90;;;;;;5100122;28;20393;-69
2022/10/05 03:05:40;;;;;;;26.85;16.00;;;14.70;99.90;;;;;;5106920;28;20987;-69
2022/10/05 03:08:45;;;;;;;26.10;15.95;;;14.70;99.90;;;;;;5107218;27;20032;-69
2022/10/05 03:11:28;;;;;;;29.40;17.08;;;14.70;99.90;;;;;;5105784;28;20054;-69
2022/10/05 03:14:41;;;;;;;24.10;16.60;;;14.70;99.90;;;;;;5093306;28;20051;-69
2022/10/05 03:17:14;;;;;;;25.25;16.70;;;14.70;99.90;;;;;;5018688;28;20128;-69
2022/10/05 03:20:04;;;;;;;27.88;16.50;;;14.70;99.90;;;;;;5042905;28;20049;-69
2022/10/05 03:22:35;;;;;;;28.52;17.40;;;14.70;99.90;;;;;;5086579;28;20590;-69
2022/10/05 03:25:38;;;;;;;22.70;16.20;;;14.70;99.90;;;;;;5089314;28;20105;-70
2022/10/05 03:28:19;;;;;;;27.98;16.85;;;14.70;99.90;;;;;;5097946;28;20053;-70
2022/10/05 03:31:05;;;;;;;29.75;16.63;;;14.70;99.90;;;;;;5091571;28;20087;-69
2022/10/05 03:33:53;;;;;;;30.05;16.52;;;14.70;99.90;;;;;;5091733;28;20500;-70
2022/10/05 03:36:48;;;;;;;25.10;15.45;;;14.70;99.90;;;;;;5095876;28;20048;-69
2022/10/05 03:39:31;;;;;;;30.25;15.43;;;14.70;99.90;;;;;;5086127;28;20066;-69
2022/10/05 03:42:25;;;;;;;27.52;14.52;;;14.70;99.90;;;;;;5092822;28;20078;-70
2022/10/05 03:45:02;;;;;;;23.42;14.65;;;14.70;99.90;;;;;;5107489;28;20573;-69
2022/10/05 03:47:44;;;;;;;26.10;16.07;;;14.70;99.90;;;;;;5097292;28;20060;-69
2022/10/05 03:50:22;;;;;;;36.40;16.65;;;14.70;99.90;;;;;;5106940;28;20081;-69
2022/10/05 03:52:55;;;;;;;26.45;16.05;;;14.70;99.90;;;;;;5110850;28;20527;-69
2022/10/05 03:55:54;;;;;;;23.40;14.82;;;14.70;99.90;;;;;;5107558;28;20048;-69
2022/10/05 03:58:26;;;;;;;24.40;16.13;;;14.70;99.90;;;;;;5107461;28;20116;-69
2022/10/05 04:01:04;;;;;;;32.03;16.50;;;14.70;99.90;;;;;;5089704;28;20134;-69
2022/10/05 04:03:47;;;;;;;32.53;16.52;;;14.60;99.90;;;;;;5108156;28;20044;-69
2022/10/05 04:06:29;;;;;;;30.42;18.67;;;14.60;99.90;;;;;;5102481;28;20039;-70
2022/10/05 04:09:36;;;;;;;24.10;16.75;;;14.60;99.90;;;;;;5099927;28;20048;-70
2022/10/05 04:12:15;;;;;;;29.77;16.40;;;14.60;99.90;;;;;;5100416;28;20117;-71
2022/10/05 04:14:47;;;;;;;26.17;17.13;;;14.60;99.90;;;;;;5100944;28;20066;-70
2022/10/05 04:17:33;;;;;;;32.33;19.77;;;14.60;99.90;;;;;;5101555;28;20089;-70
2022/10/05 04:20:12;;;;;;;23.80;17.10;;;14.60;99.90;;;;;;5106174;28;20551;-70
2022/10/05 04:23:00;;;;;;;33.50;17.92;;;14.60;99.90;;;;;;5092606;28;20044;-70
2022/10/05 04:25:34;;;;;;;27.98;17.73;;;14.60;99.90;;;;;;5097131;28;20079;-70
2022/10/05 04:28:26;;;;;;;29.92;19.48;;;14.50;99.90;;;;;;5096137;28;20073;-70
2022/10/05 04:30:53;;;;;;;28.17;18.60;;;14.50;99.90;;;;;;5110967;28;20097;-70
2022/10/05 04:33:20;;;;;;;26.00;19.13;;;14.60;99.90;;;;;;5107318;28;20046;-70
2022/10/05 04:36:04;;;;;;;30.50;20.25;;;14.50;99.90;;;;;;5099815;28;20094;-70
2022/10/05 04:38:51;;;;;;;31.88;20.77;;;14.50;99.90;;;;;;5110393;28;20049;-70
2022/10/05 04:41:39;;;;;;;34.20;21.23;;;14.50;99.90;;;;;;5111361;28;20058;-70
2022/10/05 04:44:36;;;;;;;33.25;19.75;;;14.50;99.90;;;;;;5108263;28;20049;-70
2022/10/05 04:47:35;;;;;;;37.28;21.50;;;14.50;99.90;;;;;;5105895;28;20381;-70
2022/10/05 04:50:25;;;;;;;31.13;20.45;;;14.50;99.90;;;;;;5108829;28;20544;-70
2022/10/05 04:53:09;;;;;;;27.33;19.10;;;14.50;99.90;;;;;;5091109;28;20054;-70
2022/10/05 04:55:50;;;;;;;32.85;18.77;;;14.40;99.90;;;;;;5106930;28;20425;-70
2022/10/05 04:58:25;;;;;;;28.85;20.20;;;14.40;99.90;;;;;;5110581;28;20055;-70
2022/10/05 05:01:17;;;;;;;32.00;20.40;;;14.50;99.90;;;;;;5096493;28;20082;-70
2022/10/05 05:04:07;;;;;;;31.67;20.13;;;14.40;99.90;;;;;;5104165;28;20043;-69
2022/10/05 05:06:53;;;;;;;33.50;19.77;;;14.40;99.90;;;;;;5093411;28;20110;-70
2022/10/05 05:09:44;;;;;;;35.58;20.65;;;14.40;99.90;;;;;;5082923;28;20093;-69
2022/10/05 05:12:36;;;;;;;34.90;20.38;;;14.50;99.90;;;;;;5100453;28;20078;-70
2022/10/05 05:15:22;;;;;;;32.42;20.20;;;14.40;99.90;;;;;;5101950;28;20489;-69
2022/10/05 05:18:01;;;;;;;38.45;20.73;;;14.40;99.90;;;;;;5099222;28;20058;-69
2022/10/05 05:20:36;;;;;;;38.13;22.77;;;14.40;99.90;;;;;;5102151;28;20055;-69
2022/10/05 05:23:11;;;;;;;32.13;21.15;;;14.40;99.90;;;;;;5109228;28;20051;-69
2022/10/05 05:26:00;;;;;;;32.08;20.50;;;14.40;99.90;;;;;;5106414;28;20044;-69
2022/10/05 05:28:38;;;;;;;38.10;21.50;;;14.40;99.90;;;;;;5094860;28;20040;-69
2022/10/05 05:31:47;;;;;;;29.10;19.20;;;14.50;99.90;;;;;;5089928;28;20051;-69
2022/10/05 05:34:21;;;;;;;40.67;20.98;;;14.30;99.90;;;;;;5066375;28;20401;-69
2022/10/05 05:37:09;;;;;;;34.65;20.30;;;14.30;99.90;;;;;;5092792;28;20047;-69
2022/10/05 05:39:37;;;;;;;33.90;21.58;;;14.30;99.90;;;;;;5093944;28;20081;-69
2022/10/05 05:42:16;;;;;;;37.03;21.55;;;14.30;99.90;;;;;;5102308;28;20048;-70
2022/10/05 05:44:54;;;;;;;42.40;21.45;;;14.30;99.90;;;;;;5097064;28;20047;-69
2022/10/05 05:47:34;;;;;;;36.25;21.88;;;14.20;99.90;;;;;;5105249;28;20062;-69
2022/10/05 05:50:31;;;;;;;37.15;22.90;;;14.20;99.90;;;;;;5104326;28;20566;-69
2022/10/05 05:53:28;;;;;;;43.25;24.02;;;14.20;99.90;;;;;;5100788;28;20048;-70
2022/10/05 05:56:00;;;;;;;36.53;23.23;;;14.20;99.90;;;;;;5085885;28;20058;-69
2022/10/05 05:58:34;;;;;;;33.08;22.10;;;14.30;99.90;;;;;;5108433;28;20050;-69
2022/10/05 06:01:12;;;;;;;40.13;25.80;;;14.20;99.90;;;;;;5098161;28;20051;-70
2022/10/05 06:03:56;;;;;;;39.88;24.83;;;14.20;99.90;;;;;;5091664;28;20040;-69
2022/10/05 06:06:29;;;;;;;35.78;24.20;;;14.20;99.90;;;;;;5092889;28;20040;-69
2022/10/05 06:09:24;;;;;;;37.05;22.13;;;14.30;99.90;;;;;;5087783;28;20048;-69
2022/10/05 06:12:01;;;;;;;37.53;24.77;;;14.30;99.90;;;;;;5094145;28;20058;-68
2022/10/05 06:14:33;;;;;;;45.40;24.57;;;14.20;99.90;;;;;;5106714;28;20048;-68
2022/10/05 06:17:15;;;;;;;48.08;25.45;;;14.20;99.90;;;;;;5108043;28;20051;-68
2022/10/05 06:19:42;;;;;;;38.15;24.13;;;14.20;99.90;;;;;;5095689;28;20098;-69
2022/10/05 06:22:24;;;;;;;33.63;23.95;;;14.10;99.90;;;;;;5095632;28;20080;-69
2022/10/05 06:24:56;;;;;;;36.25;23.23;;;14.20;99.90;;;;;;5077180;28;20118;-68
2022/10/05 06:27:38;;;;;;;38.15;24.00;;;14.20;99.90;;;;;;5098852;28;20527;-69
2022/10/05 06:30:13;;;;;;;36.50;24.15;;;14.20;99.90;;;;;;5108373;28;20051;-69
2022/10/05 06:33:14;;;;;;;37.60;25.08;;;14.20;99.90;;;;;;5091364;28;20074;-69
2022/10/05 06:36:12;;;;;;;40.17;26.33;;;14.30;99.90;;;;;;5090680;28;20044;-69
2022/10/05 06:39:02;;;;;;;40.45;23.27;;;14.20;99.90;;;;;;5099204;28;20135;-68
2022/10/05 06:41:44;;;;;;;37.05;23.77;;;14.30;99.90;;;;;;5101673;28;20056;-69
2022/10/05 06:44:24;;;;;;;36.03;25.33;;;14.20;99.90;;;;;;5109469;27;20044;-69
2022/10/05 06:47:14;;;;;;;36.60;24.73;;;14.30;99.90;;;;;;5098222;28;20122;-68
2022/10/05 06:49:52;;;;;;;43.28;24.33;;;14.30;99.90;;;;;;5096693;28;20086;-68
2022/10/05 06:52:17;;;;;;;38.47;24.17;;;14.40;99.90;;;;;;5084482;28;20043;-69
2022/10/05 06:54:55;;;;;;;42.17;24.88;;;14.40;99.90;;;;;;5098415;28;20048;-69
2022/10/05 06:57:57;;;;;;;37.30;26.58;;;14.40;99.90;;;;;;5108499;28;20046;-69
2022/10/05 07:00:29;;;;;;;47.55;24.98;;;14.40;99.90;;;;;;5107854;28;20047;-68
2022/10/05 07:03:32;;;;;;;33.17;23.25;;;14.40;99.90;;;;;;5103626;28;20040;-69
2022/10/05 07:06:07;;;;;;;37.45;22.30;;;14.50;99.90;;;;;;5104772;28;20519;-69
2022/10/05 07:08:58;;;;;;;32.83;23.15;;;14.50;99.90;;;;;;5096326;28;20039;-69
2022/10/05 07:12:08;;;;;;;35.13;23.27;;;14.50;99.90;;;;;;5094364;28;20066;-69
2022/10/05 07:14:50;;;;;;;32.80;23.52;;;14.50;99.90;;;;;;5063033;28;20079;-69
2022/10/05 07:17:29;;;;;;;34.83;21.77;;;14.50;99.90;;;;;;5099914;28;20051;-69
2022/10/05 07:20:02;;;;;;;36.20;23.55;;;14.60;99.90;;;;;;5087947;28;20052;-69
2022/10/05 07:22:37;;;;;;;37.75;22.70;;;14.50;99.90;;;;;;5093750;28;20056;-69
2022/10/05 07:25:12;;;;;;;34.97;23.10;;;14.60;99.90;;;;;;5090709;28;20076;-69
2022/10/05 07:27:55;;;;;;;30.92;22.60;;;14.60;99.90;;;;;;5088081;28;20048;-69
2022/10/05 07:30:21;;;;;;;35.05;23.98;;;14.60;99.90;;;;;;5086277;28;20073;-69
2022/10/05 07:32:59;;;;;;;31.60;23.13;;;14.60;99.90;;;;;;5088822;28;20044;-68
2022/10/05 07:38:31;;;;;;;28.23;22.13;;;14.70;99.90;;;;;;5100142;28;20942;-69
2022/10/05 07:41:05;;;;;;;32.30;22.92;;;14.70;99.90;;;;;;5097372;28;20079;-69
2022/10/05 07:43:36;;;;;;;30.42;21.13;;;14.80;99.90;;;;;;5105592;28;20044;-69
2022/10/05 07:46:12;;;;;;;29.17;19.98;;;14.80;99.90;;;;;;5106664;28;20384;-69
2022/10/05 07:48:55;;;;;;;27.65;21.08;;;14.90;99.90;;;;;;5096269;28;20055;-69
2022/10/05 07:51:33;;;;;;;31.67;21.95;;;14.90;99.90;;;;;;5096422;28;20040;-69
2022/10/05 07:54:22;;;;;;;30.67;22.65;;;14.90;99.90;;;;;;5088013;28;20593;-69
2022/10/05 07:57:14;;;;;;;30.27;19.63;;;15.00;99.90;;;;;;5103007;28;20044;-69
2022/10/05 07:59:57;;;;;;;31.25;21.23;;;15.10;99.90;;;;;;5063646;28;20052;-69
2022/10/05 08:02:32;;;;;;;27.83;21.92;;;15.10;99.90;;;;;;5096379;28;20059;-69
2022/10/05 08:05:08;;;;;;;31.92;21.77;;;15.10;99.90;;;;;;5106110;28;20085;-69
2022/10/05 08:07:35;;;;;;;28.88;20.80;;;15.10;99.90;;;;;;5097283;28;20074;-69
2022/10/05 08:10:22;;;;;;;34.40;22.45;;;15.20;99.90;;;;;;5102446;28;20044;-69
2022/10/05 08:13:04;;;;;;;34.00;21.63;;;15.20;99.90;;;;;;5107669;28;20109;-69
2022/10/05 08:15:40;;;;;;;25.25;18.98;;;15.30;99.90;;;;;;5106656;28;20047;-69
2022/10/05 08:18:40;;;;;;;30.58;21.85;;;15.30;99.90;;;;;;5106089;28;20492;-68
2022/10/05 08:21:10;;;;;;;28.65;19.50;;;15.40;99.90;;;;;;5094969;28;20051;-69
2022/10/05 08:23:58;;;;;;;31.90;20.30;;;15.40;99.90;;;;;;5100721;28;20101;-69
2022/10/05 08:26:48;;;;;;;;;;;15.50;99.90;;;;;;5110723;28;20047;-69
2022/10/05 08:29:23;;;;;;;32.05;20.70;;;15.60;99.90;;;;;;5096607;28;19925;-69
2022/10/05 08:31:54;;;;;;;28.20;18.67;;;15.60;99.90;;;;;;5106404;28;20050;-68
2022/10/05 08:34:44;;;;;;;30.15;18.70;;;15.60;99.90;;;;;;5111071;28;20059;-69
2022/10/05 08:37:17;;;;;;;33.53;18.85;;;15.80;99.90;;;;;;5101247;28;20101;-69
2022/10/05 08:40:20;;;;;;;30.25;18.27;;;15.80;99.90;;;;;;5089419;28;20040;-69
2022/10/05 08:43:26;;;;;;;26.48;18.73;;;15.90;99.90;;;;;;5087682;28;20091;-69
2022/10/05 08:46:12;;;;;;;25.48;18.08;;;16.00;99.90;;;;;;5110429;28;20054;-69
2022/10/05 08:48:43;;;;;;;26.60;19.58;;;16.00;99.90;;;;;;5097363;28;20043;-69
2022/10/05 08:51:29;;;;;;;22.63;17.00;;;16.00;99.90;;;;;;5102128;28;20580;-69
2022/10/05 08:54:21;;;;;;;25.48;17.05;;;16.10;99.90;;;;;;5105164;27;20047;-69
2022/10/05 08:56:55;;;;;;;22.60;16.10;;;16.20;99.90;;;;;;5109490;28;20044;-69
2022/10/05 08:59:46;;;;;;;23.88;17.80;;;16.30;99.90;;;;;;5110447;28;20655;-69
2022/10/05 09:02:34;;;;;;;19.92;15.27;;;16.30;99.90;;;;;;5102944;27;20047;-68
2022/10/05 09:05:22;;;;;;;29.05;17.63;;;16.40;99.90;;;;;;5110401;28;20058;-68
2022/10/05 09:08:09;;;;;;;27.60;17.02;;;16.50;99.90;;;;;;5101042;28;20074;-68
2022/10/05 09:11:03;;;;;;;26.93;15.57;;;16.50;99.90;;;;;;5110372;28;20051;-69
2022/10/05 09:13:47;;;;;;;25.88;17.25;;;16.60;99.90;;;;;;5101268;28;20094;-69
2022/10/05 09:16:30;;;;;;;27.88;16.83;;;16.60;99.90;;;;;;5108015;28;20089;-68
2022/10/05 09:19:10;;;;;;;22.02;16.20;;;16.70;99.90;;;;;;5098100;28;20127;-69
2022/10/05 09:21:47;;;;;;;21.58;16.15;;;16.70;99.90;;;;;;5105779;28;20083;-68
2022/10/05 09:24:49;;;;;;;18.77;15.02;;;16.80;99.90;;;;;;5107735;28;20112;-69
2022/10/05 09:27:16;;;;;;;22.67;15.00;;;16.80;99.90;;;;;;5101277;28;20055;-69
2022/10/05 09:30:12;;;;;;;18.40;15.52;;;16.80;99.90;;;;;;5110247;28;20036;-69
2022/10/05 09:32:56;;;;;;;24.52;14.93;;;16.90;99.90;;;;;;5110078;28;20836;-69
2022/10/05 09:36:02;;;;;;;18.88;12.07;;;17.00;99.90;;;;;;5100278;28;20044;-69
2022/10/05 09:38:27;;;;;;;22.15;13.88;;;17.10;99.90;;;;;;5109534;28;20108;-69
2022/10/05 09:41:10;;;;;;;20.58;13.73;;;17.10;99.90;;;;;;5110444;28;20051;-69
2022/10/05 09:44:13;;;;;;;19.98;15.68;;;17.10;99.90;;;;;;5096057;28;20197;-69
2022/10/05 09:47:13;;;;;;;18.50;13.38;;;17.20;99.90;;;;;;5106903;28;20683;-69
2022/10/05 09:49:48;;;;;;;17.92;14.60;;;17.20;99.90;;;;;;5108520;28;20047;-69
2022/10/05 09:52:29;;;;;;;21.90;13.90;;;17.20;99.90;;;;;;5102157;28;20039;-69
2022/10/05 09:55:24;;;;;;;17.70;14.60;;;17.30;99.90;;;;;;5108359;28;20385;-69
2022/10/05 09:57:52;;;;;;;19.90;13.18;;;17.30;99.90;;;;;;5107842;28;20093;-69
2022/10/05 10:00:19;;;;;;;15.75;13.27;;;17.30;99.90;;;;;;5109775;28;20415;-69
2022/10/05 10:03:06;;;;;;;18.20;14.77;;;17.40;99.90;;;;;;5106588;28;20471;-69
2022/10/05 10:05:54;;;;;;;14.70;13.00;;;17.30;99.90;;;;;;5108365;28;20134;-69
2022/10/05 10:09:08;;;;;;;15.57;13.80;;;17.40;99.90;;;;;;5103963;28;20068;-69
2022/10/05 10:12:12;;;;;;;18.08;14.27;;;17.30;99.90;;;;;;5102561;28;20035;-69
2022/10/05 10:15:00;;;;;;;18.85;15.23;;;17.30;99.90;;;;;;5107817;28;20043;-69
2022/10/05 10:17:46;;;;;;;16.60;13.70;;;17.30;99.90;;;;;;5097354;28;20405;-69
2022/10/05 10:20:34;;;;;;;21.55;16.70;;;17.20;99.90;;;;;;5105203;28;20055;-69
2022/10/05 10:23:00;;;;;;;16.33;13.73;;;17.30;99.90;;;;;;5119672;27;20048;-69
2022/10/05 10:25:44;;;;;;;16.05;13.57;;;17.20;99.90;;;;;;5091634;28;20050;-69
2022/10/05 10:28:18;;;;;;;22.30;15.50;;;17.30;99.90;;;;;;5088755;28;20228;-69
2022/10/05 10:31:05;;;;;;;21.73;15.90;;;17.30;99.90;;;;;;5105655;28;20047;-69
2022/10/05 10:33:42;;;;;;;19.77;14.70;;;17.30;99.90;;;;;;5104304;28;20404;-69
2022/10/05 10:36:46;;;;;;;18.23;13.60;;;17.20;99.90;;;;;;5107795;28;20118;-69
2022/10/05 10:39:34;;;;;;;22.20;13.50;;;17.20;99.90;;;;;;5102429;28;20043;-69
2022/10/05 10:42:14;;;;;;;23.75;14.20;;;17.30;99.90;;;;;;5090666;28;20108;-69
2022/10/05 10:45:11;;;;;;;19.50;13.98;;;17.20;99.90;;;;;;5093659;28;20409;-69
2022/10/05 10:47:50;;;;;;;24.50;16.85;;;17.20;99.90;;;;;;5100403;28;20088;-69
2022/10/05 10:50:32;;;;;;;16.88;13.95;;;17.20;99.90;;;;;;5097560;28;20055;-69
2022/10/05 10:53:20;;;;;;;18.67;14.23;;;17.20;99.90;;;;;;5105640;28;20063;-69
2022/10/05 10:56:07;;;;;;;23.65;15.85;;;17.30;99.90;;;;;;5100665;28;20135;-69
2022/10/05 10:58:51;;;;;;;18.65;14.95;;;17.30;99.90;;;;;;5097173;28;20063;-69
2022/10/05 11:02:06;;;;;;;16.63;13.25;;;17.30;99.90;;;;;;5091023;28;20040;-69
2022/10/05 11:04:53;;;;;;;21.38;13.93;;;17.30;99.90;;;;;;5083305;28;20130;-69
2022/10/05 11:07:45;;;;;;;16.58;14.60;;;17.30;99.90;;;;;;5106101;28;20047;-69
2022/10/05 11:10:28;;;;;;;14.52;13.10;;;17.40;99.90;;;;;;5102435;28;20520;-69
2022/10/05 11:13:28;;;;;;;16.40;14.38;;;17.40;99.90;;;;;;5080166;28;20062;-69
2022/10/05 11:16:21;;;;;;;15.23;13.63;;;17.40;99.90;;;;;;5098321;28;20039;-69
2022/10/05 11:19:33;;;;;;;20.75;13.98;;;17.80;99.90;;;;;;5086793;28;20459;-69
2022/10/05 11:22:29;;;;;;;19.23;14.85;;;17.50;99.90;;;;;;5089572;28;20471;-69
2022/10/05 11:25:35;;;;;;;14.52;13.02;;;17.50;99.90;;;;;;5088813;28;20052;-70
2022/10/05 11:28:28;;;;;;;15.27;12.80;;;17.60;99.90;;;;;;5071230;28;20109;-69
2022/10/05 11:31:11;;;;;;;13.95;12.25;;;17.60;99.90;;;;;;5089421;28;20036;-69
2022/10/05 11:33:58;;;;;;;14.52;11.48;;;17.50;99.90;;;;;;5088595;28;20105;-69
2022/10/05 11:36:43;;;;;;;13.20;11.35;;;17.60;99.90;;;;;;5102577;28;20075;-69
2022/10/05 11:39:27;;;;;;;14.90;10.75;;;17.60;99.90;;;;;;5106256;28;20135;-69
2022/10/05 11:42:04;;;;;;;12.70;10.43;;;17.70;99.90;;;;;;5090512;28;20125;-69
2022/10/05 11:45:00;;;;;;;13.32;11.40;;;17.80;99.90;;;;;;5089914;28;20051;-68
2022/10/05 11:47:44;;;;;;;12.60;11.27;;;17.80;99.90;;;;;;5096956;28;20050;-69
2022/10/05 11:50:16;;;;;;;16.25;12.65;;;17.80;99.90;;;;;;5100637;28;20405;-69
2022/10/05 11:53:00;;;;;;;13.38;11.77;;;17.80;99.90;;;;;;5107603;28;20046;-70
2022/10/05 11:55:38;;;;;;;13.90;12.30;;;17.80;99.90;;;;;;5090461;28;20047;-69
2022/10/05 11:58:22;;;;;;;19.38;13.70;;;17.80;99.90;;;;;;5099639;28;20046;-69
2022/10/05 12:00:48;;;;;;;14.82;13.32;;;17.90;99.90;;;;;;5104329;28;20044;-69
2022/10/05 12:03:44;;;;;;;14.70;12.48;;;17.90;99.90;;;;;;5098129;28;20056;-69
2022/10/05 12:06:28;;;;;;;14.70;13.10;;;17.90;99.90;;;;;;5105214;28;20074;-69
2022/10/05 12:09:10;;;;;;;32.53;13.18;;;17.80;99.90;;;;;;5088703;28;20049;-70
2022/10/05 12:11:45;;;;;;;13.65;12.32;;;17.80;99.90;;;;;;5107918;28;20055;-69
2022/10/05 12:14:51;;;;;;;16.20;12.25;;;17.80;99.90;;;;;;5107361;28;20560;-69
2022/10/05 12:17:24;;;;;;;16.85;12.30;;;17.80;99.90;;;;;;5101684;28;20051;-69
2022/10/05 12:19:58;;;;;;;21.48;13.85;;;17.70;99.90;;;;;;5106266;28;20389;-69
2022/10/05 12:23:04;;;;;;;17.33;13.30;;;18.00;99.90;;;;;;5101195;28;20047;-69
2022/10/05 12:25:44;;;;;;;15.98;13.13;;;17.70;99.90;;;;;;5097454;28;20124;-69
2022/10/05 12:28:15;;;;;;;14.52;12.75;;;17.70;99.90;;;;;;5090582;28;20493;-69
2022/10/05 12:31:23;;;;;;;13.85;12.43;;;17.70;99.90;;;;;;5106712;28;20123;-69
2022/10/05 12:34:16;;;;;;;18.17;12.73;;;17.70;99.90;;;;;;5095336;28;20052;-69
2022/10/05 12:37:01;;;;;;;19.85;12.27;;;17.60;99.90;;;;;;5093939;28;20071;-69
2022/10/05 12:39:48;;;;;;;14.75;12.02;;;17.60;99.90;;;;;;5106126;28;20059;-69
2022/10/05 12:42:41;;;;;;;15.68;13.73;;;17.60;99.90;;;;;;5095338;28;20056;-69
2022/10/05 12:45:16;;;;;;;15.23;12.10;;;17.60;99.90;;;;;;5104978;28;20043;-69
2022/10/05 12:48:09;;;;;;;15.30;12.50;;;17.60;99.90;;;;;;5097334;28;20772;-69
2022/10/05 12:50:40;;;;;;;15.00;12.23;;;17.60;99.90;;;;;;5100067;28;20079;-69
2022/10/05 12:53:47;;;;;;;17.13;12.55;;;17.60;99.90;;;;;;5109465;28;20043;-69
2022/10/05 12:56:21;;;;;;;16.88;13.15;;;17.60;99.90;;;;;;5100526;28;20052;-69
2022/10/05 12:59:03;;;;;;;16.77;13.27;;;17.60;99.90;;;;;;5110284;28;20047;-69
2022/10/05 13:01:51;;;;;;;13.80;12.35;;;17.60;99.90;;;;;;5109841;28;20051;-69
2022/10/05 13:04:40;;;;;;;18.88;11.85;;;17.60;99.90;;;;;;5097060;28;20058;-69
2022/10/05 13:07:11;;;;;;;14.80;11.88;;;17.60;99.90;;;;;;5096501;28;20809;-69
2022/10/05 13:09:43;;;;;;;14.98;12.27;;;17.60;99.90;;;;;;5103136;28;20054;-69
2022/10/05 13:12:22;;;;;;;21.42;12.40;;;17.60;99.90;;;;;;5109441;28;20050;-69
2022/10/05 13:15:06;;;;;;;14.57;11.88;;;17.60;99.90;;;;;;5103635;28;20044;-69
2022/10/05 13:17:43;;;;;;;12.68;11.38;;;17.70;99.90;;;;;;5089994;28;20075;-69
2022/10/05 13:20:34;;;;;;;13.10;11.20;;;17.70;99.90;;;;;;5105884;28;20059;-69
2022/10/05 13:23:07;;;;;;;12.93;11.40;;;17.70;99.90;;;;;;5087940;28;20044;-69
2022/10/05 13:25:39;;;;;;;12.35;11.10;;;17.70;99.90;;;;;;5109098;28;20055;-69
2022/10/05 13:28:18;;;;;;;15.68;11.35;;;17.80;99.90;;;;;;5094165;28;20477;-69
2022/10/05 13:30:54;;;;;;;12.55;10.10;;;17.80;99.90;;;;;;5107827;28;20070;-69
2022/10/05 13:33:46;;;;;;;14.23;10.13;;;17.80;99.90;;;;;;5109673;28;20051;-69
2022/10/05 13:36:24;;;;;;;12.55;9.13;;;17.80;99.90;;;;;;5107105;28;20097;-69
2022/10/05 13:39:04;;;;;;;15.10;9.93;;;17.90;99.90;;;;;;5100401;28;20512;-69
2022/10/05 13:41:35;;;;;;;11.95;8.35;;;17.90;99.90;;;;;;5110142;28;20079;-70
2022/10/05 13:44:32;;;;;;;13.77;9.43;;;18.00;99.90;;;;;;5108150;28;20039;-69
2022/10/05 13:47:07;;;;;;;14.63;10.23;;;18.10;99.90;;;;;;5094749;28;20078;-69
2022/10/05 13:49:54;;;;;;;13.00;10.02;;;18.20;99.90;;;;;;5105052;28;20634;-69
2022/10/05 13:52:46;;;;;;;10.30;9.27;;;18.20;99.90;;;;;;5098250;28;20048;-69